Time;durP1;ratioP1;P1;durP2;ratioP2;P2;SDS_P1;SDS_P2;PMS_P1;PMS_P2;Temp;Humidity;BMP_temperature;BMP_pressure;BME280_temperature;BME280_humidity;BME280_pressure;Samples;Min_cycle;Max_cycle;Signal;HPM_P1;HPM_P2
2023/06/03 00:01:07;;;;;;;1999.90;999.90;;;13.20;93.70;;;;;;6313130;22;20062;-78
2023/06/03 00:03:33;;;;;;;1999.90;999.90;;;13.20;94.00;;;;;;6313273;22;20416;-78
2023/06/03 00:05:59;;;;;;;1999.90;999.90;;;13.10;94.00;;;;;;6285982;22;20003;-78
2023/06/03 00:08:25;;;;;;;1999.90;999.90;;;13.10;94.40;;;;;;6313561;22;20008;-78
2023/06/03 00:10:51;;;;;;;1999.90;999.90;;;13.10;94.50;;;;;;6285579;22;20082;-80
2023/06/03 00:13:16;;;;;;;1999.90;999.90;;;13.00;94.80;;;;;;6314467;22;20004;-78
2023/06/03 00:15:42;;;;;;;1999.90;999.90;;;13.00;94.60;;;;;;6287322;22;20007;-78
2023/06/03 00:18:08;;;;;;;1999.90;999.90;;;12.90;95.20;;;;;;6314776;22;20012;-78
2023/06/03 00:20:35;;;;;;;1999.90;999.90;;;12.90;95.10;;;;;;6314931;22;20008;-78
2023/06/03 00:23:05;;;;;;;1999.90;999.90;;;12.90;95.10;;;;;;6314528;22;20004;-78
2023/06/03 00:25:32;;;;;;;1999.90;999.90;;;12.80;95.00;;;;;;6315002;22;20099;-77
2023/06/03 00:27:57;;;;;;;1999.90;999.90;;;12.80;95.40;;;;;;6314990;22;20013;-78
2023/06/03 00:30:23;;;;;;;1999.90;999.90;;;12.80;95.50;;;;;;6314631;22;20340;-77
2023/06/03 00:32:49;;;;;;;1999.90;999.90;;;12.80;95.60;;;;;;6314209;22;20489;-78
2023/06/03 00:35:14;;;;;;;1999.90;999.90;;;12.70;96.10;;;;;;6314866;22;20074;-78
2023/06/03 00:37:40;;;;;;;1999.90;999.90;;;12.70;96.00;;;;;;6314734;22;20023;-78
2023/06/03 00:40:06;;;;;;;1999.90;999.90;;;12.60;96.40;;;;;;6314847;22;20054;-77
2023/06/03 00:42:32;;;;;;;1999.90;999.90;;;12.50;96.60;;;;;;6338874;22;20090;-77
2023/06/03 00:44:57;;;;;;;1999.90;999.90;;;12.40;96.40;;;;;;6314692;22;20038;-77
2023/06/03 00:47:23;;;;;;;1999.90;999.90;;;12.30;96.60;;;;;;6314630;22;20138;-78
2023/06/03 00:49:49;;;;;;;1999.90;999.90;;;12.30;96.80;;;;;;6314918;22;20090;-78
2023/06/03 00:52:17;;;;;;;1999.90;999.90;;;12.30;96.90;;;;;;6314322;22;20122;-78
2023/06/03 00:54:43;;;;;;;1999.90;999.90;;;12.30;96.90;;;;;;6287301;22;20007;-77
2023/06/03 00:57:10;;;;;;;1999.90;999.90;;;12.40;97.00;;;;;;6315098;22;20343;-78
2023/06/03 00:59:35;;;;;;;1999.90;999.90;;;12.40;96.80;;;;;;6287448;22;20026;-78
2023/06/03 01:02:01;;;;;;;1999.90;999.90;;;12.50;96.70;;;;;;6314763;22;20014;-78
2023/06/03 01:04:28;;;;;;;1999.90;999.90;;;12.50;96.50;;;;;;6315119;22;20073;-78
2023/06/03 01:07:17;;;;;;;1999.90;999.90;;;12.60;96.90;;;;;;6315118;22;20008;-78
2023/06/03 01:10:13;;;;;;;1999.90;999.90;;;12.60;96.60;;;;;;6315060;22;20040;-78
2023/06/03 01:13:01;;;;;;;1999.90;999.90;;;12.60;96.50;;;;;;6314198;22;20011;-78
2023/06/03 01:15:30;;;;;;;1999.90;999.90;;;12.60;96.90;;;;;;6314845;22;20008;-78
2023/06/03 01:18:00;;;;;;;1999.90;999.90;;;12.60;96.60;;;;;;6314775;22;20316;-78
2023/06/03 01:20:28;;;;;;;1999.90;999.90;;;12.50;96.90;;;;;;6339436;22;20042;-78
2023/06/03 01:23:14;;;;;;;1999.90;999.90;;;12.50;96.90;;;;;;6314392;22;20003;-78
2023/06/03 01:25:41;;;;;;;1999.90;999.90;;;12.50;97.40;;;;;;6314902;22;20033;-79
2023/06/03 01:28:07;;;;;;;1999.90;999.90;;;12.30;97.70;;;;;;6286712;22;20008;-78
2023/06/03 01:30:33;;;;;;;1999.90;999.90;;;12.30;97.70;;;;;;6314546;22;20004;-78
2023/06/03 01:33:01;;;;;;;1999.90;999.90;;;12.20;98.20;;;;;;6314471;22;20008;-78
2023/06/03 01:35:27;;;;;;;1999.90;999.90;;;12.20;98.00;;;;;;6286895;22;20003;-78
2023/06/03 01:37:54;;;;;;;1999.90;999.90;;;12.10;98.30;;;;;;6286966;22;20012;-78
2023/06/03 01:40:20;;;;;;;1999.90;999.90;;;12.10;98.20;;;;;;6314759;22;20004;-78
2023/06/03 01:42:46;;;;;;;1999.90;999.90;;;12.00;98.10;;;;;;6313997;22;20110;-78
2023/06/03 01:45:11;;;;;;;1999.90;999.90;;;12.00;98.40;;;;;;6314650;22;20012;-78
2023/06/03 01:47:37;;;;;;;1999.90;999.90;;;12.00;98.90;;;;;;6314575;22;20012;-78
2023/06/03 01:50:03;;;;;;;1999.90;999.90;;;12.00;98.80;;;;;;6314629;22;20105;-78
2023/06/03 01:52:28;;;;;;;1999.90;999.90;;;11.90;98.90;;;;;;6313714;22;20078;-78
2023/06/03 01:54:54;;;;;;;1999.90;999.90;;;11.90;98.80;;;;;;6314552;22;20051;-78
2023/06/03 01:57:20;;;;;;;1999.90;999.90;;;12.00;98.60;;;;;;6314588;22;20031;-78
2023/06/03 01:59:45;;;;;;;1999.90;999.90;;;12.10;98.50;;;;;;6314444;22;20003;-78
2023/06/03 02:02:11;;;;;;;1999.90;999.90;;;12.10;98.60;;;;;;6286093;22;20007;-78
2023/06/03 02:04:36;;;;;;;1999.90;999.90;;;12.10;98.50;;;;;;6314425;22;20062;-78
2023/06/03 02:07:02;;;;;;;1999.90;999.90;;;12.00;99.10;;;;;;6314380;22;20008;-78
2023/06/03 02:09:28;;;;;;;1999.90;999.90;;;12.00;99.10;;;;;;6286855;22;20038;-78
2023/06/03 02:11:55;;;;;;;1999.90;999.90;;;12.00;99.30;;;;;;6313757;22;20007;-78
2023/06/03 02:14:21;;;;;;;1999.90;999.90;;;11.90;99.30;;;;;;6314273;22;20486;-78
2023/06/03 02:16:48;;;;;;;1999.90;999.90;;;11.80;99.40;;;;;;6314477;22;20011;-78
2023/06/03 02:19:21;;;;;;;1999.90;999.90;;;11.80;99.60;;;;;;6314357;22;20000;-78
2023/06/03 02:21:47;;;;;;;1999.90;999.90;;;11.80;99.60;;;;;;6314093;22;20526;-78
2023/06/03 02:24:14;;;;;;;1999.90;999.90;;;11.70;99.80;;;;;;6314432;22;20007;-78
2023/06/03 02:26:50;;;;;;;1999.90;999.90;;;11.70;99.90;;;;;;6314436;22;20007;-78
2023/06/03 02:29:19;;;;;;;1999.90;999.90;;;11.60;99.70;;;;;;6314354;22;20057;-78
2023/06/03 02:31:46;;;;;;;1999.90;999.90;;;11.60;99.90;;;;;;6314139;22;20508;-78
2023/06/03 02:34:12;;;;;;;1999.90;999.90;;;11.60;99.90;;;;;;6287001;22;20403;-78
2023/06/03 02:36:38;;;;;;;1999.90;999.90;;;11.60;99.90;;;;;;6315048;22;20019;-78
2023/06/03 02:39:04;;;;;;;1999.90;999.90;;;11.60;99.90;;;;;;6314344;22;20007;-78
2023/06/03 02:41:30;;;;;;;1999.90;999.90;;;11.60;99.90;;;;;;6314068;22;20008;-78
2023/06/03 02:43:56;;;;;;;1999.90;999.90;;;11.60;99.90;;;;;;6286289;22;20008;-78
2023/06/03 02:46:21;;;;;;;1999.90;999.90;;;11.60;99.90;;;;;;6314276;22;20023;-77
2023/06/03 02:48:47;;;;;;;1999.90;999.90;;;11.60;99.90;;;;;;6314215;22;20008;-78
2023/06/03 02:51:13;;;;;;;1999.90;999.90;;;11.70;99.90;;;;;;6313732;22;20010;-78
2023/06/03 02:53:38;;;;;;;1999.90;999.90;;;11.70;99.90;;;;;;6286269;22;20065;-77
2023/06/03 02:56:04;;;;;;;1999.90;999.90;;;11.70;99.90;;;;;;6314026;22;20372;-77
2023/06/03 02:58:29;;;;;;;1999.90;999.90;;;11.70;99.90;;;;;;6314107;22;20351;-78
2023/06/03 03:00:55;;;;;;;1999.90;999.90;;;11.70;99.90;;;;;;6313829;22;20082;-78
2023/06/03 03:03:20;;;;;;;1999.90;999.90;;;11.60;99.90;;;;;;6286418;22;20338;-78
2023/06/03 03:05:47;;;;;;;1999.90;999.90;;;11.60;99.90;;;;;;6313964;22;20011;-78
2023/06/03 03:08:13;;;;;;;1999.90;999.90;;;11.60;99.90;;;;;;6314124;22;20079;-78
2023/06/03 03:10:39;;;;;;;1999.90;999.90;;;11.50;99.90;;;;;;6313958;22;20103;-77
2023/06/03 03:13:04;;;;;;;1999.90;999.90;;;11.50;99.90;;;;;;6313464;22;20083;-77
2023/06/03 03:15:29;;;;;;;1999.90;999.90;;;11.40;99.90;;;;;;6314044;22;20015;-78
2023/06/03 03:17:55;;;;;;;1999.90;999.90;;;11.40;99.90;;;;;;6313840;22;20020;-78
2023/06/03 03:20:20;;;;;;;1999.90;999.90;;;11.40;99.90;;;;;;6313598;22;20011;-78
2023/06/03 03:22:46;;;;;;;1999.90;999.90;;;11.40;99.90;;;;;;6313539;22;20051;-78
2023/06/03 03:25:12;;;;;;;1999.90;999.90;;;11.40;99.90;;;;;;6286321;22;20355;-77
2023/06/03 03:27:37;;;;;;;1999.90;999.90;;;11.40;99.90;;;;;;6313821;22;20471;-78
2023/06/03 03:30:05;;;;;;;1999.90;999.90;;;11.30;99.90;;;;;;6314025;22;20085;-78
2023/06/03 03:32:32;;;;;;;1999.90;999.90;;;11.30;99.90;;;;;;6313111;22;20019;-78
2023/06/03 03:35:14;;;;;;;1999.90;999.90;;;11.30;99.90;;;;;;6313677;22;20008;-77
2023/06/03 03:37:40;;;;;;;1999.90;999.90;;;11.30;99.90;;;;;;6313779;22;20473;-77
2023/06/03 03:40:20;;;;;;;1999.90;999.90;;;11.20;99.90;;;;;;6313703;22;20000;-77
2023/06/03 03:42:48;;;;;;;1999.90;999.90;;;11.20;99.90;;;;;;6312903;22;20049;-78
2023/06/03 03:45:22;;;;;;;1999.90;999.90;;;11.10;99.90;;;;;;6313756;22;20047;-78
2023/06/03 03:47:51;;;;;;;1999.90;999.90;;;11.10;99.90;;;;;;6314631;22;20014;-78
2023/06/03 03:50:50;;;;;;;1999.90;999.90;;;11.10;99.90;;;;;;6315094;22;20008;-78
2023/06/03 03:53:21;;;;;;;1999.90;999.90;;;11.10;99.90;;;;;;6314177;22;20016;-78
2023/06/03 03:55:49;;;;;;;1999.90;999.90;;;11.10;99.90;;;;;;6315061;22;20023;-78
2023/06/03 03:58:33;;;;;;;1999.90;999.90;;;11.10;99.90;;;;;;6315130;22;20003;-78
2023/06/03 04:01:01;;;;;;;1999.90;999.90;;;11.20;99.90;;;;;;6287144;22;20083;-77
2023/06/03 04:03:30;;;;;;;1999.90;999.90;;;11.10;99.90;;;;;;6315031;22;20038;-77
2023/06/03 04:05:55;;;;;;;1999.90;999.90;;;11.10;99.90;;;;;;6314992;22;20003;-78
2023/06/03 04:08:43;;;;;;;1999.90;999.90;;;11.20;99.90;;;;;;6314796;22;20012;-78
2023/06/03 04:11:25;;;;;;;1999.90;999.90;;;11.20;99.90;;;;;;6314476;22;20062;-77
2023/06/03 04:13:51;;;;;;;1999.90;999.90;;;11.20;99.90;;;;;;6287454;22;20479;-78
2023/06/03 04:16:41;;;;;;;1999.90;999.90;;;11.30;99.90;;;;;;6315030;22;20032;-77
2023/06/03 04:19:32;;;;;;;1999.90;999.90;;;11.30;99.90;;;;;;6339609;22;20007;-78
2023/06/03 04:21:59;;;;;;;1999.90;999.90;;;11.40;99.90;;;;;;6286986;22;20081;-78
2023/06/03 04:24:26;;;;;;;1999.90;999.90;;;11.40;99.90;;;;;;6315076;22;20431;-77
2023/06/03 04:26:52;;;;;;;1999.90;999.90;;;11.40;99.90;;;;;;6314801;22;20061;-78
2023/06/03 04:29:18;;;;;;;1999.90;999.90;;;11.50;99.90;;;;;;6314940;22;20038;-77
2023/06/03 04:31:44;;;;;;;1999.90;999.90;;;11.50;99.90;;;;;;6286737;22;20031;-77
2023/06/03 04:34:10;;;;;;;1999.90;999.90;;;11.60;99.90;;;;;;6287198;22;20029;-78
2023/06/03 04:36:36;;;;;;;1999.90;999.90;;;11.60;99.90;;;;;;6315066;22;20111;-78
2023/06/03 04:39:05;;;;;;;1999.90;999.90;;;11.60;99.90;;;;;;6314771;22;20000;-77
2023/06/03 04:41:32;;;;;;;1999.90;999.90;;;11.70;99.90;;;;;;6314658;22;20451;-77
2023/06/03 04:43:59;;;;;;;1999.90;999.90;;;11.70;99.90;;;;;;6315026;22;20000;-78
2023/06/03 04:46:31;;;;;;;1999.90;999.90;;;11.80;99.90;;;;;;6314999;22;20031;-78
2023/06/03 04:48:58;;;;;;;1999.90;999.90;;;11.80;99.90;;;;;;6287245;22;20048;-78
2023/06/03 04:51:27;;;;;;;1999.90;999.90;;;11.90;99.90;;;;;;6286788;22;20483;-78
2023/06/03 04:53:56;;;;;;;1999.90;999.90;;;11.90;99.90;;;;;;6314213;22;20383;-78
2023/06/03 04:56:25;;;;;;;1999.90;999.90;;;12.00;99.90;;;;;;6314918;22;20459;-78
2023/06/03 04:58:57;;;;;;;1999.90;999.90;;;12.00;99.90;;;;;;6314526;22;20034;-78
2023/06/03 05:01:24;;;;;;;1999.90;999.90;;;12.10;99.90;;;;;;6286563;22;20085;-78
2023/06/03 05:03:53;;;;;;;1999.90;999.90;;;12.20;99.90;;;;;;6314526;22;20000;-77
2023/06/03 05:06:19;;;;;;;1999.90;999.90;;;12.20;99.90;;;;;;6286775;22;20509;-78
2023/06/03 05:08:49;;;;;;;1999.90;999.90;;;12.40;99.90;;;;;;6314609;22;20007;-78
2023/06/03 05:11:15;;;;;;;1999.90;999.90;;;12.50;99.90;;;;;;6314371;22;20015;-77
2023/06/03 05:13:41;;;;;;;1999.90;999.90;;;12.50;99.90;;;;;;6287014;22;20099;-77
2023/06/03 05:16:07;;;;;;;1999.90;999.90;;;12.60;99.80;;;;;;6314600;22;20031;-77
2023/06/03 05:18:32;;;;;;;1999.90;999.90;;;12.70;99.90;;;;;;6314663;22;20004;-77
2023/06/03 05:20:58;;;;;;;1999.90;999.90;;;12.80;99.70;;;;;;6314320;22;19999;-77
2023/06/03 05:23:23;;;;;;;1999.90;999.90;;;12.90;99.20;;;;;;6314251;22;19999;-77
2023/06/03 05:25:49;;;;;;;1999.90;999.90;;;13.00;99.40;;;;;;6314420;22;20054;-77
2023/06/03 05:28:14;;;;;;;1999.90;999.90;;;13.10;99.00;;;;;;6287149;22;20035;-78
2023/06/03 05:30:40;;;;;;;1999.90;999.90;;;13.20;98.70;;;;;;6314565;22;20507;-78
2023/06/03 05:33:06;;;;;;;1999.90;999.90;;;13.30;98.60;;;;;;6314014;22;20030;-78
2023/06/03 05:35:31;;;;;;;1999.90;999.90;;;13.30;98.80;;;;;;6286879;22;20340;-78
2023/06/03 05:37:57;;;;;;;1999.90;999.90;;;13.50;98.60;;;;;;6314669;22;20008;-78
2023/06/03 05:40:22;;;;;;;1999.90;999.90;;;13.50;97.90;;;;;;6314484;22;19999;-78
2023/06/03 05:42:48;;;;;;;1999.90;999.90;;;13.60;98.20;;;;;;6314062;22;20004;-77
2023/06/03 05:45:14;;;;;;;1999.90;999.90;;;13.60;97.70;;;;;;6314594;22;20012;-77
2023/06/03 05:47:39;;;;;;;1999.90;999.90;;;13.70;97.80;;;;;;6286922;22;20009;-77
2023/06/03 05:50:06;;;;;;;1999.90;999.90;;;13.70;97.50;;;;;;6315118;22;20003;-80
2023/06/03 05:52:31;;;;;;;1999.90;999.90;;;13.80;97.50;;;;;;6315701;22;20016;-78
2023/06/03 05:54:57;;;;;;;1999.90;999.90;;;13.90;97.40;;;;;;6316019;22;20074;-77
2023/06/03 05:57:24;;;;;;;1999.90;999.90;;;13.90;97.40;;;;;;6318958;22;20026;-80
2023/06/03 05:59:51;;;;;;;1999.90;999.90;;;14.00;97.50;;;;;;6316891;22;20440;-78
2023/06/03 06:02:20;;;;;;;1999.90;999.90;;;14.00;97.30;;;;;;6314927;22;20004;-76
2023/06/03 06:04:46;;;;;;;1999.90;999.90;;;14.10;97.40;;;;;;6317903;22;20004;-79
2023/06/03 06:07:11;;;;;;;1999.90;999.90;;;14.20;97.10;;;;;;6317001;22;20007;-77
2023/06/03 06:09:37;;;;;;;1999.90;999.90;;;14.20;96.90;;;;;;6286529;22;20107;-78
2023/06/03 06:12:02;;;;;;;1999.90;999.90;;;14.30;97.30;;;;;;6312453;22;20015;-78
2023/06/03 06:14:28;;;;;;;1999.90;999.90;;;14.40;97.00;;;;;;6286735;22;20050;-78
2023/06/03 06:16:54;;;;;;;1999.90;999.90;;;14.50;96.80;;;;;;6314494;22;20336;-78
2023/06/03 06:19:21;;;;;;;1999.90;999.90;;;14.60;96.00;;;;;;6314520;22;20011;-77
2023/06/03 06:21:47;;;;;;;1999.90;999.90;;;14.70;95.80;;;;;;6314665;22;20011;-78
2023/06/03 06:24:13;;;;;;;1999.90;999.90;;;14.80;95.60;;;;;;6287665;22;20008;-78
2023/06/03 06:26:39;;;;;;;1999.90;999.90;;;14.90;95.70;;;;;;6315202;22;20384;-77
2023/06/03 06:29:05;;;;;;;1999.90;999.90;;;15.00;95.90;;;;;;6314527;22;20004;-76
2023/06/03 06:31:31;;;;;;;1999.90;999.90;;;15.10;95.20;;;;;;6314088;22;20096;-75
2023/06/03 06:33:59;;;;;;;1999.90;999.90;;;15.20;94.90;;;;;;6314033;22;20006;-78
2023/06/03 06:36:30;;;;;;;1999.90;999.90;;;15.40;95.00;;;;;;6314620;22;20365;-74
2023/06/03 06:38:56;;;;;;;1999.90;999.90;;;15.50;94.50;;;;;;6314468;22;20000;-75
2023/06/03 06:41:25;;;;;;;1999.90;999.90;;;15.50;94.10;;;;;;6314175;22;20008;-77
2023/06/03 06:43:52;;;;;;;1999.90;999.90;;;15.50;94.20;;;;;;6317143;22;20066;-77
2023/06/03 06:46:17;;;;;;;1999.90;999.90;;;15.70;94.20;;;;;;6316797;22;20095;-77
2023/06/03 06:48:43;;;;;;;1999.90;999.90;;;15.80;94.10;;;;;;6315263;22;20023;-74
2023/06/03 06:51:08;;;;;;;1999.90;999.90;;;15.90;94.00;;;;;;6314281;22;20007;-77
2023/06/03 06:53:35;;;;;;;1999.90;999.90;;;16.00;93.40;;;;;;6287132;22;20318;-76
2023/06/03 06:56:06;;;;;;;1999.90;999.90;;;16.10;93.50;;;;;;6314362;22;20010;-80
2023/06/03 06:58:37;;;;;;;1999.90;999.90;;;16.40;93.60;;;;;;6286765;22;20058;-75
2023/06/03 07:01:07;;;;;;;1999.90;999.90;;;16.50;92.80;;;;;;6311151;22;20043;-76
2023/06/03 07:03:33;;;;;;;1999.90;999.90;;;16.50;92.70;;;;;;6284637;22;20092;-76
2023/06/03 07:05:59;;;;;;;1999.90;999.90;;;16.70;92.80;;;;;;6312378;22;20034;-77
2023/06/03 07:08:25;;;;;;;1999.90;999.90;;;16.80;92.70;;;;;;6313754;22;19995;-76
2023/06/03 07:10:54;;;;;;;1999.90;999.90;;;16.90;92.50;;;;;;6313570;22;20502;-75
2023/06/03 07:13:20;;;;;;;1999.90;999.90;;;17.00;92.30;;;;;;6313489;22;20083;-76
2023/06/03 07:15:45;;;;;;;1999.90;999.90;;;17.30;92.00;;;;;;6313997;22;20099;-75
2023/06/03 07:18:12;;;;;;;1999.90;999.90;;;17.30;91.60;;;;;;6314166;22;20557;-75
2023/06/03 07:20:43;;;;;;;1999.90;999.90;;;17.50;91.40;;;;;;6311671;22;20003;-78
2023/06/03 07:23:11;;;;;;;1999.90;999.90;;;17.60;91.30;;;;;;6314025;22;20012;-76
2023/06/03 07:25:48;;;;;;;1999.90;999.90;;;17.90;90.90;;;;;;6314146;22;20100;-75
2023/06/03 07:28:29;;;;;;;1999.90;999.90;;;18.10;90.90;;;;;;6315256;22;20715;-76
2023/06/03 07:30:58;;;;;;;1999.90;999.90;;;18.20;90.60;;;;;;6315336;22;20549;-74
2023/06/03 07:33:26;;;;;;;1999.90;999.90;;;18.60;90.50;;;;;;6312221;22;20008;-75
2023/06/03 07:35:57;;;;;;;1999.90;999.90;;;18.90;89.50;;;;;;6314502;22;20012;-75
2023/06/03 07:38:53;;;;;;;1999.90;999.90;;;19.00;88.90;;;;;;6314691;22;20050;-75
2023/06/03 07:41:45;;;;;;;1999.90;999.90;;;19.20;89.10;;;;;;6313238;22;20010;-75
2023/06/03 07:44:13;;;;;;;1999.90;999.90;;;19.50;88.30;;;;;;6314195;22;20012;-77
2023/06/03 07:46:39;;;;;;;1999.90;999.90;;;19.40;87.60;;;;;;6314677;22;20035;-81
2023/06/03 07:49:16;;;;;;;1999.90;999.90;;;19.70;86.10;;;;;;6312309;22;20007;-76
2023/06/03 07:51:48;;;;;;;1999.90;999.90;;;19.90;86.00;;;;;;6312982;22;20043;-78
2023/06/03 07:54:15;;;;;;;1999.90;999.90;;;20.00;85.30;;;;;;6315041;22;20008;-76
2023/06/03 07:56:41;;;;;;;1999.90;999.90;;;20.10;85.20;;;;;;6286915;22;20042;-76
2023/06/03 07:59:09;;;;;;;1999.90;999.90;;;20.30;85.30;;;;;;6314777;22;20504;-76
2023/06/03 08:01:35;;;;;;;1999.90;999.90;;;20.50;83.60;;;;;;6314641;22;20471;-77
2023/06/03 08:04:05;;;;;;;1999.90;999.90;;;20.60;83.60;;;;;;6313723;22;20030;-77
2023/06/03 08:06:32;;;;;;;1999.90;999.90;;;20.90;81.80;;;;;;6286195;22;20011;-75
2023/06/03 08:08:59;;;;;;;1999.90;999.90;;;20.80;82.70;;;;;;6315108;22;20099;-74
2023/06/03 08:11:25;;;;;;;1999.90;999.90;;;20.80;81.90;;;;;;6286899;22;20074;-75
2023/06/03 08:13:53;;;;;;;1999.90;999.90;;;20.80;82.20;;;;;;6287018;22;20030;-75
2023/06/03 08:16:20;;;;;;;1999.90;999.90;;;21.00;82.20;;;;;;6314039;22;20439;-76
2023/06/03 08:18:47;;;;;;;1999.90;999.90;;;21.00;80.80;;;;;;6314785;22;20406;-75
2023/06/03 08:21:14;;;;;;;1999.90;999.90;;;21.20;81.60;;;;;;6314118;22;20003;-76
2023/06/03 08:23:40;;;;;;;1999.90;999.90;;;21.10;82.20;;;;;;6313308;22;20090;-76
2023/06/03 08:26:06;;;;;;;1999.90;999.90;;;21.50;79.90;;;;;;6314689;22;20447;-75
2023/06/03 08:28:31;;;;;;;1999.90;999.90;;;21.50;79.60;;;;;;6314734;22;20000;-75
2023/06/03 08:30:58;;;;;;;1999.90;999.90;;;21.40;80.00;;;;;;6314390;22;20397;-75
2023/06/03 08:33:24;;;;;;;1999.90;999.90;;;21.70;80.20;;;;;;6313383;22;20008;-76
2023/06/03 08:35:49;;;;;;;1999.90;999.90;;;21.90;78.90;;;;;;6285097;22;20056;-75
2023/06/03 08:38:16;;;;;;;1999.90;999.90;;;21.90;78.20;;;;;;6287376;22;20003;-76
2023/06/03 08:40:50;;;;;;;1999.90;999.90;;;21.90;81.00;;;;;;6315224;22;20007;-76
2023/06/03 08:43:16;;;;;;;1999.90;999.90;;;22.10;78.00;;;;;;6314287;22;20325;-76
2023/06/03 08:46:11;;;;;;;1999.90;999.90;;;22.60;77.20;;;;;;6287159;22;20012;-76
2023/06/03 08:48:38;;;;;;;1999.90;999.90;;;22.80;77.20;;;;;;6314747;22;21154;-76
2023/06/03 08:51:05;;;;;;;1999.90;999.90;;;23.10;75.50;;;;;;6314260;22;20008;-75
2023/06/03 08:53:57;;;;;;;1999.90;999.90;;;23.20;74.80;;;;;;6286617;22;20042;-76
2023/06/03 08:56:25;;;;;;;1999.90;999.90;;;23.00;76.00;;;;;;6282325;22;20512;-74
2023/06/03 08:59:01;;;;;;;1999.90;999.90;;;23.10;73.90;;;;;;6314936;22;20030;-73
2023/06/03 09:01:37;;;;;;;1999.90;999.90;;;23.00;75.50;;;;;;6314360;22;20126;-74
2023/06/03 09:04:03;;;;;;;1999.90;999.90;;;22.80;75.30;;;;;;6314642;22;20012;-74
2023/06/03 09:06:29;;;;;;;1999.90;999.90;;;22.90;76.10;;;;;;6314530;22;20030;-76
2023/06/03 09:08:57;;;;;;;1999.90;999.90;;;23.00;75.80;;;;;;6314701;22;20062;-73
2023/06/03 09:11:23;;;;;;;1999.90;999.90;;;23.30;73.70;;;;;;6313720;22;20016;-73
2023/06/03 09:13:52;;;;;;;1999.90;999.90;;;23.50;74.90;;;;;;6286729;22;20548;-73
2023/06/03 09:16:19;;;;;;;1999.90;999.90;;;23.80;74.20;;;;;;6336837;22;20014;-73
2023/06/03 09:18:48;;;;;;;1999.90;999.90;;;23.80;71.40;;;;;;6312008;22;20079;-73
2023/06/03 09:21:14;;;;;;;1999.90;999.90;;;23.50;74.10;;;;;;6311876;22;20463;-73
2023/06/03 09:23:40;;;;;;;1999.90;999.90;;;23.50;75.20;;;;;;6311991;22;20008;-73
2023/06/03 09:26:06;;;;;;;1999.90;999.90;;;23.70;75.70;;;;;;6285569;22;20014;-73
2023/06/03 09:28:34;;;;;;;1999.90;999.90;;;23.60;73.80;;;;;;6313556;22;20015;-73
2023/06/03 09:31:00;;;;;;;1999.90;999.90;;;23.40;75.00;;;;;;6313574;22;20004;-73
2023/06/03 09:33:26;;;;;;;1999.90;999.90;;;23.40;73.30;;;;;;6314141;22;20313;-73
2023/06/03 09:36:13;;;;;;;1999.90;999.90;;;23.50;73.70;;;;;;6314379;22;20454;-73
2023/06/03 09:38:46;;;;;;;1999.90;999.90;;;23.60;75.30;;;;;;6286899;22;20008;-73
2023/06/03 09:41:19;;;;;;;1999.90;999.90;;;23.70;72.90;;;;;;6314138;22;20099;-73
2023/06/03 09:44:06;;;;;;;1999.90;999.90;;;23.60;74.40;;;;;;6313766;22;20065;-73
2023/06/03 09:46:33;;;;;;;1999.90;999.90;;;24.00;73.70;;;;;;6314396;22;20011;-73
2023/06/03 09:49:13;;;;;;;1999.90;999.90;;;24.00;75.60;;;;;;6286733;22;20008;-73
2023/06/03 09:51:47;;;;;;;1999.90;999.90;;;24.50;72.30;;;;;;6313686;22;20008;-73
2023/06/03 09:54:17;;;;;;;1999.90;999.90;;;24.90;71.10;;;;;;6314475;22;20004;-73
2023/06/03 09:56:47;;;;;;;1999.90;999.90;;;24.70;71.30;;;;;;6314047;22;20007;-73
2023/06/03 09:59:25;;;;;;;1999.90;999.90;;;24.70;70.30;;;;;;6314459;22;20000;-73
2023/06/03 10:01:52;;;;;;;1999.90;999.90;;;24.70;70.70;;;;;;6313803;22;20008;-73
2023/06/03 10:04:39;;;;;;;1999.90;999.90;;;24.90;72.20;;;;;;6314319;22;20032;-73
2023/06/03 10:07:17;;;;;;;1999.90;999.90;;;25.10;72.00;;;;;;6314561;22;20347;-73
2023/06/03 10:09:45;;;;;;;1999.90;999.90;;;25.10;69.10;;;;;;6286896;22;20028;-73
2023/06/03 10:12:11;;;;;;;1999.90;999.90;;;25.40;72.00;;;;;;6313611;22;20811;-73
2023/06/03 10:14:50;;;;;;;1999.90;999.90;;;25.10;69.30;;;;;;6314216;22;20011;-73
2023/06/03 10:17:18;;;;;;;1999.90;999.90;;;25.40;68.70;;;;;;6314126;22;20011;-73
2023/06/03 10:19:45;;;;;;;1999.90;999.90;;;25.20;68.60;;;;;;6314322;22;20458;-73
2023/06/03 10:22:13;;;;;;;1999.90;999.90;;;25.60;68.60;;;;;;6313505;22;20007;-73
2023/06/03 10:24:40;;;;;;;1999.90;999.90;;;25.40;70.70;;;;;;6314297;22;20007;-73
2023/06/03 10:27:06;;;;;;;1999.90;999.90;;;25.30;69.40;;;;;;6314239;22;20443;-73
2023/06/03 10:29:33;;;;;;;1999.90;999.90;;;25.60;68.00;;;;;;6314219;22;20461;-74
2023/06/03 10:32:02;;;;;;;1999.90;999.90;;;25.60;68.60;;;;;;6313528;22;20018;-74
2023/06/03 10:34:33;;;;;;;1999.90;999.90;;;25.80;69.30;;;;;;6314233;22;20419;-74
2023/06/03 10:37:01;;;;;;;1999.90;999.90;;;26.10;69.80;;;;;;6314372;22;20150;-74
2023/06/03 10:39:29;;;;;;;1999.90;999.90;;;26.50;67.10;;;;;;6314264;22;20674;-74
2023/06/03 10:41:58;;;;;;;1999.90;999.90;;;26.60;67.60;;;;;;6285869;22;20510;-74
2023/06/03 10:44:24;;;;;;;1999.90;999.90;;;26.90;66.30;;;;;;6314123;22;20440;-74
2023/06/03 10:47:06;;;;;;;1999.90;999.90;;;26.70;66.00;;;;;;6314135;22;20004;-74
2023/06/03 10:49:38;;;;;;;1999.90;999.90;;;26.70;66.10;;;;;;6314100;22;20039;-74
2023/06/03 10:52:24;;;;;;;1999.90;999.90;;;26.70;69.60;;;;;;6312970;22;20016;-74
2023/06/03 10:55:10;;;;;;;1999.90;999.90;;;26.70;66.40;;;;;;6286513;22;20008;-74
2023/06/03 10:57:45;;;;;;;1999.90;999.90;;;26.40;67.10;;;;;;6313924;22;20011;-74
2023/06/03 11:00:12;;;;;;;1999.90;999.90;;;26.80;68.30;;;;;;6286576;22;20004;-74
2023/06/03 11:03:04;;;;;;;1999.90;999.90;;;27.20;65.90;;;;;;6313627;22;20008;-74
2023/06/03 11:05:30;;;;;;;1999.90;999.90;;;27.30;65.20;;;;;;6314115;22;20004;-74
2023/06/03 11:07:55;;;;;;;1999.90;999.90;;;27.60;64.40;;;;;;6313938;22;20007;-74
2023/06/03 11:10:36;;;;;;;1999.90;999.90;;;27.50;65.40;;;;;;6313920;22;20003;-74
2023/06/03 11:13:02;;;;;;;1999.90;999.90;;;27.70;64.90;;;;;;6313347;22;20042;-74
2023/06/03 11:16:03;;;;;;;1999.90;999.90;;;27.80;62.90;;;;;;6313804;22;20110;-74
2023/06/03 11:18:30;;;;;;;1999.90;999.90;;;27.70;63.90;;;;;;6313961;22;20012;-74
2023/06/03 11:20:56;;;;;;;1999.90;999.90;;;27.60;64.60;;;;;;6285694;22;20474;-74
2023/06/03 11:23:40;;;;;;;1999.90;999.90;;;27.60;64.80;;;;;;6285991;22;20058;-74
2023/06/03 11:26:39;;;;;;;1999.90;999.90;;;27.30;62.00;;;;;;6286092;22;20008;-74
2023/06/03 11:29:06;;;;;;;1999.90;999.90;;;27.20;63.90;;;;;;6251982;22;20012;-74
2023/06/03 11:31:33;;;;;;;1999.90;999.90;;;27.20;65.30;;;;;;6313371;22;20012;-74
2023/06/03 11:34:25;;;;;;;1999.90;999.90;;;27.40;63.50;;;;;;6313343;22;20468;-74
2023/06/03 11:36:55;;;;;;;1999.90;999.90;;;27.30;65.30;;;;;;6313787;22;20589;-74
2023/06/03 11:39:22;;;;;;;1999.90;999.90;;;27.80;62.50;;;;;;6313371;22;20087;-74
2023/06/03 11:42:04;;;;;;;1999.90;999.90;;;27.60;62.20;;;;;;6285492;22;20039;-74
2023/06/03 11:44:30;;;;;;;1999.90;999.90;;;27.50;62.50;;;;;;6313664;22;20000;-74
2023/06/03 11:46:56;;;;;;;1999.90;999.90;;;27.50;62.90;;;;;;6313644;22;20078;-74
2023/06/03 11:49:22;;;;;;;1999.90;999.90;;;27.70;63.30;;;;;;6313672;22;20071;-74
2023/06/03 11:51:52;;;;;;;1999.90;999.90;;;27.70;63.00;;;;;;6312721;22;20008;-74
2023/06/03 11:54:20;;;;;;;1999.90;999.90;;;27.30;63.30;;;;;;6313727;22;20000;-74
2023/06/03 11:56:46;;;;;;;1999.90;999.90;;;27.70;62.70;;;;;;6313569;22;20061;-74
2023/06/03 11:59:13;;;;;;;1999.90;999.90;;;27.70;62.70;;;;;;6313572;22;20495;-74
2023/06/03 12:01:57;;;;;;;1999.90;999.90;;;27.70;63.30;;;;;;6312878;22;20003;-74
2023/06/03 12:04:22;;;;;;;1999.90;999.90;;;27.90;62.80;;;;;;6313524;22;20000;-74
2023/06/03 12:06:48;;;;;;;1999.90;999.90;;;27.50;60.90;;;;;;6313487;22;20645;-74
2023/06/03 12:09:18;;;;;;;1999.90;999.90;;;27.20;62.80;;;;;;6314622;22;20004;-74